^^
Station Historical Data
Daily Summary for February 14, 2018 Units:  Both    English   Metric
« Previous Day
Next Day »
Daily Weekly Monthly Yearly Custom
  High: Low: Average:
Temperature: TemperatureF °F /  -17.8 °C 41.0 °F /  5 °C 48.3 °F /  9.1 °C
Dew Point: DewpointF °F /  -17.8 °C 32.0 °F /  0 °C 42.4 °F /  5.8 °C
Humidity: Humidity% 66% 80%
Wind Speed: WindSpeedMPHmph /  0km/h - 7.6mph /  12.2km/h
Wind Gust: WindSpeedGustMPHmph /  0km/h - -
Wind- - SSW
Pressure: PressureIn in /  0 hPa 29.76 in /  1007.7 hPa -
Precipitation: 0.00 in /  0 mm    
Historical Graphs
 
 
Tabular Data for February 14, 2018
Time Temperature Dew Point Pressure Wind Wind Speed Wind Gust Humidity Rainfall Rate (Hourly)
TemperatureF °F /  -17.8 °C DewpointF °F /  -17.8 °C PressureInin /  0hPa Calm     Humidity% HourlyPrecipInin /  0mm
00:04 41.0 °F /  5 °C 32.0 °F /  0 °C 30.20in /  1022.6hPa South 4.6mph /  7.4km/h 4.6mph /  7.4km/h 70% 0.00in /  0mm
00:09 41.0 °F /  5 °C 32.0 °F /  0 °C 30.20in /  1022.6hPa SW 4.6mph /  7.4km/h 4.6mph /  7.4km/h 70% 0.00in /  0mm
00:14 41.1 °F /  5.1 °C 32.1 °F /  0.1 °C 30.20in /  1022.6hPa South 5.8mph /  9.3km/h 5.8mph /  9.3km/h 70% 0.00in /  0mm
00:19 41.3 °F /  5.2 °C 32.6 °F /  0.3 °C 30.20in /  1022.6hPa SSW 10.4mph /  16.7km/h 10.4mph /  16.7km/h 71% 0.00in /  0mm
00:25 41.4 °F /  5.2 °C 32.7 °F /  0.4 °C 30.19in /  1022.2hPa South 6.9mph /  11.1km/h 6.9mph /  11.1km/h 71% 0.00in /  0mm
00:30 41.6 °F /  5.3 °C 32.9 °F /  0.5 °C 30.19in /  1022.2hPa South 9.2mph /  14.8km/h 9.2mph /  14.8km/h 71% 0.00in /  0mm
00:35 41.8 °F /  5.4 °C 33.1 °F /  0.6 °C 30.18in /  1021.9hPa South 8.1mph /  13km/h 8.1mph /  13km/h 71% 0.00in /  0mm
00:40 41.9 °F /  5.5 °C 33.5 °F /  0.8 °C 30.18in /  1021.9hPa South 11.5mph /  18.5km/h 11.5mph /  18.5km/h 72% 0.00in /  0mm
00:45 42.0 °F /  5.6 °C 33.6 °F /  0.9 °C 30.18in /  1021.9hPa South 9.2mph /  14.8km/h 9.2mph /  14.8km/h 72% 0.00in /  0mm
00:51 42.2 °F /  5.7 °C 34.2 °F /  1.2 °C 30.17in /  1021.6hPa SE 12.7mph /  20.4km/h 12.7mph /  20.4km/h 73% 0.00in /  0mm
00:56 42.4 °F /  5.8 °C 34.4 °F /  1.3 °C 30.17in /  1021.6hPa South 8.0mph /  12.9km/h 8.0mph /  12.9km/h 73% 0.00in /  0mm
01:01 42.5 °F /  5.8 °C 34.8 °F /  1.6 °C 30.17in /  1021.6hPa SSW 10.0mph /  16.1km/h 10.0mph /  16.1km/h 74% 0.00in /  0mm
01:06 42.6 °F /  5.9 °C 34.9 °F /  1.6 °C 30.17in /  1021.6hPa South 5.8mph /  9.3km/h 5.8mph /  9.3km/h 74% 0.00in /  0mm
01:11 42.7 °F /  5.9 °C 35.3 °F /  1.8 °C 30.17in /  1021.6hPa SSW 6.9mph /  11.1km/h 6.9mph /  11.1km/h 75% 0.00in /  0mm
01:17 42.8 °F /  6 °C 35.4 °F /  1.9 °C 30.16in /  1021.2hPa SSW 6.9mph /  11.1km/h 6.9mph /  11.1km/h 75% 0.00in /  0mm
01:22 43.0 °F /  6.1 °C 35.6 °F /  2 °C 30.16in /  1021.2hPa SSW 5.8mph /  9.3km/h 5.8mph /  9.3km/h 75% 0.00in /  0mm
01:27 43.2 °F /  6.2 °C 35.8 °F /  2.1 °C 30.17in /  1021.6hPa South 6.9mph /  11.1km/h 6.9mph /  11.1km/h 75% 0.00in /  0mm
01:32 43.3 °F /  6.3 °C 35.9 °F /  2.2 °C 30.17in /  1021.6hPa SSW 8.1mph /  13km/h 8.1mph /  13km/h 75% 0.00in /  0mm
01:37 43.2 °F /  6.2 °C 35.8 °F /  2.1 °C 30.17in /  1021.6hPa SSE 8.1mph /  13km/h 8.1mph /  13km/h 75% 0.00in /  0mm
01:42 43.1 °F /  6.2 °C 35.7 °F /  2.1 °C 30.16in /  1021.2hPa SSE 4.6mph /  7.4km/h 5.7mph /  9.2km/h 75% 0.00in /  0mm
01:47 43.0 °F /  6.1 °C 36.0 °F /  2.2 °C 30.16in /  1021.2hPa SSW 9.2mph /  14.8km/h 9.2mph /  14.8km/h 76% 0.00in /  0mm
01:52 43.1 °F /  6.2 °C 36.0 °F /  2.2 °C 30.16in /  1021.2hPa SW 9.2mph /  14.8km/h 9.2mph /  14.8km/h 76% 0.00in /  0mm
01:58 43.2 °F /  6.2 °C 36.1 °F /  2.3 °C 30.16in /  1021.2hPa South 10.4mph /  16.7km/h 10.4mph /  16.7km/h 76% 0.00in /  0mm
02:03 43.2 °F /  6.2 °C 36.1 °F /  2.3 °C 30.16in /  1021.2hPa SSW 10.4mph /  16.7km/h 10.4mph /  16.7km/h 76% 0.00in /  0mm
02:09 43.3 °F /  6.3 °C 36.2 °F /  2.3 °C 30.15in /  1020.9hPa South 11.5mph /  18.5km/h 11.5mph /  18.5km/h 76% 0.00in /  0mm
02:14 43.2 °F /  6.2 °C 36.1 °F /  2.3 °C 30.15in /  1020.9hPa SSE 10.4mph /  16.7km/h 10.4mph /  16.7km/h 76% 0.00in /  0mm
02:19 43.0 °F /  6.1 °C 36.0 °F /  2.2 °C 30.15in /  1020.9hPa South 5.8mph /  9.3km/h 5.8mph /  9.3km/h 76% 0.00in /  0mm
02:24 42.8 °F /  6 °C 36.1 °F /  2.3 °C 30.15in /  1020.9hPa South 9.2mph /  14.8km/h 9.2mph /  14.8km/h 77% 0.00in /  0mm
02:30 42.7 °F /  5.9 °C 36.0 °F /  2.2 °C 30.15in /  1020.9hPa South 5.8mph /  9.3km/h 5.8mph /  9.3km/h 77% 0.00in /  0mm
02:35 42.4 °F /  5.8 °C 35.7 °F /  2.1 °C 30.14in /  1020.5hPa South 3.5mph /  5.6km/h 3.5mph /  5.6km/h 77% 0.00in /  0mm
02:40 42.4 °F /  5.8 °C 36.0 °F /  2.2 °C 30.14in /  1020.5hPa SSW 5.8mph /  9.3km/h 5.8mph /  9.3km/h 78% 0.00in /  0mm
02:45 42.6 °F /  5.9 °C 36.2 °F /  2.3 °C 30.14in /  1020.5hPa SSW 8.1mph /  13km/h 8.1mph /  13km/h 78% 0.00in /  0mm
02:50 42.8 °F /  6 °C 36.4 °F /  2.4 °C 30.14in /  1020.5hPa South 6.9mph /  11.1km/h 6.9mph /  11.1km/h 78% 0.00in /  0mm
02:55 43.0 °F /  6.1 °C 36.6 °F /  2.6 °C 30.14in /  1020.5hPa SW 6.9mph /  11.1km/h 6.9mph /  11.1km/h 78% 0.00in /  0mm
03:01 43.3 °F /  6.3 °C 36.9 °F /  2.7 °C 30.13in /  1020.2hPa South 10.4mph /  16.7km/h 10.4mph /  16.7km/h 78% 0.00in /  0mm
03:06 43.3 °F /  6.3 °C 37.2 °F /  2.9 °C 30.13in /  1020.2hPa SW 8.1mph /  13km/h 8.1mph /  13km/h 79% 0.00in /  0mm
03:11 43.4 °F /  6.3 °C 37.3 °F /  2.9 °C 30.13in /  1020.2hPa SSW 5.8mph /  9.3km/h 5.8mph /  9.3km/h 79% 0.00in /  0mm
03:17 43.3 °F /  6.3 °C 37.2 °F /  2.9 °C 30.12in /  1019.9hPa South 6.9mph /  11.1km/h 6.9mph /  11.1km/h 79% 0.00in /  0mm
03:22 43.2 °F /  6.2 °C 37.1 °F /  2.8 °C 30.12in /  1019.9hPa South 6.9mph /  11.1km/h 6.9mph /  11.1km/h 79% 0.00in /  0mm
03:27 43.1 °F /  6.2 °C 37.3 °F /  2.9 °C 30.12in /  1019.9hPa South 3.5mph /  5.6km/h 3.5mph /  5.6km/h 80% 0.00in /  0mm
03:32 43.0 °F /  6.1 °C 36.9 °F /  2.7 °C 30.12in /  1019.9hPa SSW 5.8mph /  9.3km/h 5.8mph /  9.3km/h 79% 0.00in /  0mm
03:37 42.8 °F /  6 °C 37.1 °F /  2.8 °C 30.12in /  1019.9hPa SE 3.5mph /  5.6km/h 3.5mph /  5.6km/h 80% 0.00in /  0mm
03:42 42.7 °F /  5.9 °C 37.3 °F /  2.9 °C 30.12in /  1019.9hPa SSE 5.8mph /  9.3km/h 5.8mph /  9.3km/h 81% 0.00in /  0mm
03:47 42.8 °F /  6 °C 37.4 °F /  3 °C 30.12in /  1019.9hPa South 6.0mph /  9.7km/h 6.0mph /  9.7km/h 81% 0.00in /  0mm
03:53 42.8 °F /  6 °C 37.4 °F /  3 °C 30.11in /  1019.5hPa SSW 6.9mph /  11.1km/h 6.9mph /  11.1km/h 81% 0.00in /  0mm
03:59 42.9 °F /  6.1 °C 37.5 °F /  3.1 °C 30.11in /  1019.5hPa SSW 7.0mph /  11.3km/h 7.0mph /  11.3km/h 81% 0.00in /  0mm
04:04 42.8 °F /  6 °C 37.7 °F /  3.2 °C 30.11in /  1019.5hPa SSE 5.8mph /  9.3km/h 5.8mph /  9.3km/h 82% 0.00in /  0mm
04:09 42.7 °F /  5.9 °C 37.6 °F /  3.1 °C 30.11in /  1019.5hPa SSW 9.2mph /  14.8km/h 9.2mph /  14.8km/h 82% 0.00in /  0mm
04:14 42.7 °F /  5.9 °C 37.9 °F /  3.3 °C 30.11in /  1019.5hPa SSW 8.1mph /  13km/h 8.1mph /  13km/h 83% 0.00in /  0mm
04:20 42.7 °F /  5.9 °C 37.9 °F /  3.3 °C 30.11in /  1019.5hPa SSW 11.5mph /  18.5km/h 11.5mph /  18.5km/h 83% 0.00in /  0mm
04:25 42.8 °F /  6 °C 38.0 °F /  3.3 °C 30.11in /  1019.5hPa SW 8.1mph /  13km/h 8.1mph /  13km/h 83% 0.00in /  0mm
04:30 42.7 °F /  5.9 °C 37.9 °F /  3.3 °C 30.11in /  1019.5hPa South 6.9mph /  11.1km/h 6.9mph /  11.1km/h 83% 0.00in /  0mm
04:35 42.6 °F /  5.9 °C 38.1 °F /  3.4 °C 30.11in /  1019.5hPa SSW 8.1mph /  13km/h 8.1mph /  13km/h 84% 0.00in /  0mm
04:40 42.6 °F /  5.9 °C 38.1 °F /  3.4 °C 30.11in /  1019.5hPa South 4.6mph /  7.4km/h 4.6mph /  7.4km/h 84% 0.00in /  0mm
04:46 42.5 °F /  5.8 °C 38.3 °F /  3.5 °C 30.10in /  1019.2hPa South 6.9mph /  11.1km/h 6.9mph /  11.1km/h 85% 0.00in /  0mm
04:48 42.5 °F /  5.8 °C 38.3 °F /  3.5 °C 30.11in /  1019.5hPa SSW 8.1mph /  13km/h 8.1mph /  13km/h 85% 0.00in /  0mm
04:53 42.5 °F /  5.8 °C 38.6 °F /  3.7 °C 30.11in /  1019.5hPa SSW 5.8mph /  9.3km/h 5.8mph /  9.3km/h 86% 0.00in /  0mm
04:58 42.5 °F /  5.8 °C 38.6 °F /  3.7 °C 30.10in /  1019.2hPa SSE 5.8mph /  9.3km/h 5.8mph /  9.3km/h 86% 0.00in /  0mm
05:03 42.4 °F /  5.8 °C 38.5 °F /  3.6 °C 30.10in /  1019.2hPa SSW 8.1mph /  13km/h 8.1mph /  13km/h 86% 0.00in /  0mm
05:09 42.4 °F /  5.8 °C 38.5 °F /  3.6 °C 30.10in /  1019.2hPa South 6.9mph /  11.1km/h 6.9mph /  11.1km/h 86% 0.00in /  0mm
05:14 42.2 °F /  5.7 °C 38.6 °F /  3.7 °C 30.10in /  1019.2hPa South 8.1mph /  13km/h 8.1mph /  13km/h 87% 0.00in /  0mm
05:19 42.2 °F /  5.7 °C 38.9 °F /  3.8 °C 30.09in /  1018.8hPa South 9.2mph /  14.8km/h 9.2mph /  14.8km/h 88% 0.00in /  0mm
05:24 42.1 °F /  5.6 °C 38.8 °F /  3.8 °C 30.09in /  1018.8hPa South 6.9mph /  11.1km/h 6.9mph /  11.1km/h 88% 0.00in /  0mm
05:29 42.1 °F /  5.6 °C 38.8 °F /  3.8 °C 30.09in /  1018.8hPa South 5.8mph /  9.3km/h 5.8mph /  9.3km/h 88% 0.00in /  0mm
05:34 42.0 °F /  5.6 °C 39.0 °F /  3.9 °C 30.09in /  1018.8hPa South 9.2mph /  14.8km/h 9.2mph /  14.8km/h 89% 0.00in /  0mm
05:39 42.0 °F /  5.6 °C 39.0 °F /  3.9 °C 30.08in /  1018.5hPa SSE 10.4mph /  16.7km/h 10.4mph /  16.7km/h 89% 0.00in /  0mm
05:44 42.0 °F /  5.6 °C 39.3 °F /  4.1 °C 30.08in /  1018.5hPa South 8.1mph /  13km/h 8.1mph /  13km/h 90% 0.00in /  0mm
05:50 42.1 °F /  5.6 °C 39.4 °F /  4.1 °C 30.08in /  1018.5hPa South 11.5mph /  18.5km/h 11.5mph /  18.5km/h 90% 0.00in /  0mm
05:55 42.1 °F /  5.6 °C 39.7 °F /  4.3 °C 30.08in /  1018.5hPa South 9.2mph /  14.8km/h 9.2mph /  14.8km/h 91% 0.00in /  0mm
06:00 42.2 °F /  5.7 °C 39.8 °F /  4.3 °C 30.08in /  1018.5hPa South 7.0mph /  11.3km/h 7.0mph /  11.3km/h 91% 0.00in /  0mm
06:01 42.2 °F /  5.7 °C 39.8 °F /  4.3 °C 30.08in /  1018.5hPa South 6.9mph /  11.1km/h 6.9mph /  11.1km/h 91% 0.00in /  0mm
06:06 42.2 °F /  5.7 °C 39.8 °F /  4.3 °C 30.08in /  1018.5hPa SSE 11.0mph /  17.7km/h 11.0mph /  17.7km/h 91% 0.00in /  0mm
06:11 42.2 °F /  5.7 °C 39.8 °F /  4.3 °C 30.08in /  1018.5hPa SSW 10.4mph /  16.7km/h 10.4mph /  16.7km/h 91% 0.00in /  0mm
06:16 42.2 °F /  5.7 °C 39.8 °F /  4.3 °C 30.08in /  1018.5hPa SW 7.0mph /  11.3km/h 7.0mph /  11.3km/h 91% 0.00in /  0mm
06:22 42.3 °F /  5.7 °C 40.1 °F /  4.5 °C 30.08in /  1018.5hPa South 11.5mph /  18.5km/h 11.5mph /  18.5km/h 92% 0.00in /  0mm
06:27 42.5 °F /  5.8 °C 40.3 °F /  4.6 °C 30.08in /  1018.5hPa SSW 10.4mph /  16.7km/h 10.4mph /  16.7km/h 92% 0.00in /  0mm
06:32 42.5 °F /  5.8 °C 40.3 °F /  4.6 °C 30.08in /  1018.5hPa SSE 8.1mph /  13km/h 8.1mph /  13km/h 92% 0.00in /  0mm
06:38 42.6 °F /  5.9 °C 40.4 °F /  4.7 °C 30.07in /  1018.2hPa SSE 5.8mph /  9.3km/h 5.8mph /  9.3km/h 92% 0.00in /  0mm
06:43 42.6 °F /  5.9 °C 40.4 °F /  4.7 °C 30.07in /  1018.2hPa SSW 8.0mph /  12.9km/h 8.0mph /  12.9km/h 92% 0.00in /  0mm
06:48 42.7 °F /  5.9 °C 40.5 °F /  4.7 °C 30.07in /  1018.2hPa South 8.1mph /  13km/h 8.1mph /  13km/h 92% 0.00in /  0mm
06:53 42.5 °F /  5.8 °C 40.3 °F /  4.6 °C 30.07in /  1018.2hPa South 6.9mph /  11.1km/h 6.9mph /  11.1km/h 92% 0.00in /  0mm
06:58 42.5 °F /  5.8 °C 40.3 °F /  4.6 °C 30.07in /  1018.2hPa SSE 4.6mph /  7.4km/h 4.6mph /  7.4km/h 92% 0.00in /  0mm
07:04 42.5 °F /  5.8 °C 40.3 °F /  4.6 °C 30.07in /  1018.2hPa South 4.6mph /  7.4km/h 4.6mph /  7.4km/h 92% 0.00in /  0mm
07:09 42.4 °F /  5.8 °C 40.2 °F /  4.6 °C 30.07in /  1018.2hPa South 3.5mph /  5.6km/h 3.5mph /  5.6km/h 92% 0.00in /  0mm
07:14 42.3 °F /  5.7 °C 40.1 °F /  4.5 °C 30.07in /  1018.2hPa South 4.6mph /  7.4km/h 4.6mph /  7.4km/h 92% 0.00in /  0mm
07:19 42.4 °F /  5.8 °C 40.5 °F /  4.7 °C 30.07in /  1018.2hPa South 3.5mph /  5.6km/h 3.5mph /  5.6km/h 93% 0.00in /  0mm
07:24 42.6 °F /  5.9 °C 40.7 °F /  4.8 °C 30.07in /  1018.2hPa South 5.8mph /  9.3km/h 5.8mph /  9.3km/h 93% 0.00in /  0mm
07:29 42.7 °F /  5.9 °C 40.5 °F /  4.7 °C 30.08in /  1018.5hPa SE 6.9mph /  11.1km/h 6.9mph /  11.1km/h 92% 0.00in /  0mm
07:34 42.7 °F /  5.9 °C 40.5 °F /  4.7 °C 30.08in /  1018.5hPa SSW 10.4mph /  16.7km/h 10.4mph /  16.7km/h 92% 0.00in /  0mm
07:39 42.6 °F /  5.9 °C 40.4 °F /  4.7 °C 30.07in /  1018.2hPa South 11.5mph /  18.5km/h 11.5mph /  18.5km/h 92% 0.00in /  0mm
07:44 42.6 °F /  5.9 °C 40.7 °F /  4.8 °C 30.07in /  1018.2hPa SSW 5.8mph /  9.3km/h 5.8mph /  9.3km/h 93% 0.00in /  0mm
07:50 42.6 °F /  5.9 °C 40.7 °F /  4.8 °C 30.07in /  1018.2hPa SSW 3.5mph /  5.6km/h 3.5mph /  5.6km/h 93% 0.00in /  0mm
07:55 42.7 °F /  5.9 °C 40.8 °F /  4.9 °C 30.07in /  1018.2hPa South 6.9mph /  11.1km/h 6.9mph /  11.1km/h 93% 0.00in /  0mm
08:00 42.7 °F /  5.9 °C 40.8 °F /  4.9 °C 30.07in /  1018.2hPa SSW 6.9mph /  11.1km/h 6.9mph /  11.1km/h 93% 0.00in /  0mm
08:05 42.8 °F /  6 °C 40.9 °F /  4.9 °C 30.07in /  1018.2hPa South 5.8mph /  9.3km/h 5.8mph /  9.3km/h 93% 0.00in /  0mm
08:10 42.9 °F /  6.1 °C 41.0 °F /  5 °C 30.07in /  1018.2hPa SSE 3.5mph /  5.6km/h 3.5mph /  5.6km/h 93% 0.00in /  0mm
08:16 43.0 °F /  6.1 °C 41.1 °F /  5.1 °C 30.07in /  1018.2hPa SSE 11.5mph /  18.5km/h 11.5mph /  18.5km/h 93% 0.00in /  0mm
08:21 43.0 °F /  6.1 °C 41.1 °F /  5.1 °C 30.07in /  1018.2hPa South 6.9mph /  11.1km/h 6.9mph /  11.1km/h 93% 0.00in /  0mm
08:26 43.1 °F /  6.2 °C 41.2 °F /  5.1 °C 30.06in /  1017.8hPa SSW 9.2mph /  14.8km/h 9.2mph /  14.8km/h 93% 0.00in /  0mm
08:32 43.2 °F /  6.2 °C 41.3 °F /  5.2 °C 30.07in /  1018.2hPa South 10.4mph /  16.7km/h 10.4mph /  16.7km/h 93% 0.00in /  0mm
08:37 43.3 °F /  6.3 °C 41.4 °F /  5.2 °C 30.07in /  1018.2hPa SSW 6.9mph /  11.1km/h 6.9mph /  11.1km/h 93% 0.00in /  0mm
08:43 43.5 °F /  6.4 °C 41.6 °F /  5.3 °C 30.06in /  1017.8hPa South 5.8mph /  9.3km/h 5.8mph /  9.3km/h 93% 0.00in /  0mm
08:48 43.7 °F /  6.5 °C 41.8 °F /  5.4 °C 30.05in /  1017.5hPa South 4.6mph /  7.4km/h 4.6mph /  7.4km/h 93% 0.00in /  0mm
08:53 43.8 °F /  6.6 °C 41.6 °F /  5.3 °C 30.05in /  1017.5hPa SSW 5.0mph /  8km/h 5.0mph /  8km/h 92% 0.00in /  0mm
08:58 43.9 °F /  6.6 °C 41.7 °F /  5.4 °C 30.05in /  1017.5hPa SSW 8.1mph /  13km/h 8.1mph /  13km/h 92% 0.00in /  0mm
09:03 44.1 °F /  6.7 °C 41.9 °F /  5.5 °C 30.05in /  1017.5hPa South 13.8mph /  22.2km/h 13.8mph /  22.2km/h 92% 0.00in /  0mm
09:08 44.2 °F /  6.8 °C 42.0 °F /  5.6 °C 30.05in /  1017.5hPa South 6.9mph /  11.1km/h 6.9mph /  11.1km/h 92% 0.00in /  0mm
09:13 44.3 °F /  6.8 °C 42.1 °F /  5.6 °C 30.05in /  1017.5hPa WSW 9.2mph /  14.8km/h 9.2mph /  14.8km/h 92% 0.00in /  0mm
09:18 44.5 °F /  6.9 °C 42.3 °F /  5.7 °C 30.05in /  1017.5hPa SSW 6.9mph /  11.1km/h 6.9mph /  11.1km/h 92% 0.00in /  0mm
09:23 44.6 °F /  7 °C 42.4 °F /  5.8 °C 30.05in /  1017.5hPa WNW 10.4mph /  16.7km/h 10.4mph /  16.7km/h 92% 0.00in /  0mm
09:28 44.8 °F /  7.1 °C 42.3 °F /  5.7 °C 30.05in /  1017.5hPa SSW 9.2mph /  14.8km/h 9.7mph /  15.6km/h 91% 0.00in /  0mm
09:33 44.9 °F /  7.2 °C 42.4 °F /  5.8 °C 30.05in /  1017.5hPa SSW 11.5mph /  18.5km/h 11.5mph /  18.5km/h 91% 0.00in /  0mm
09:38 45.1 °F /  7.3 °C 42.6 °F /  5.9 °C 30.05in /  1017.5hPa SW 10.4mph /  16.7km/h 10.4mph /  16.7km/h 91% 0.00in /  0mm
09:44 45.3 °F /  7.4 °C 42.8 °F /  6 °C 30.05in /  1017.5hPa SSW 8.0mph /  12.9km/h 8.0mph /  12.9km/h 91% 0.00in /  0mm
09:49 45.5 °F /  7.5 °C 42.7 °F /  5.9 °C 30.04in /  1017.2hPa West 10.4mph /  16.7km/h 10.4mph /  16.7km/h 90% 0.00in /  0mm
09:54 45.6 °F /  7.6 °C 42.8 °F /  6 °C 30.04in /  1017.2hPa SSW 10.4mph /  16.7km/h 10.4mph /  16.7km/h 90% 0.00in /  0mm
10:00 45.8 °F /  7.7 °C 43.0 °F /  6.1 °C 30.04in /  1017.2hPa SSW 8.1mph /  13km/h 8.1mph /  13km/h 90% 0.00in /  0mm
10:05 46.1 °F /  7.8 °C 43.3 °F /  6.3 °C 30.05in /  1017.5hPa NW 8.1mph /  13km/h 8.1mph /  13km/h 90% 0.00in /  0mm
10:10 46.2 °F /  7.9 °C 43.4 °F /  6.3 °C 30.04in /  1017.2hPa WSW 10.0mph /  16.1km/h 10.0mph /  16.1km/h 90% 0.00in /  0mm
10:16 46.4 °F /  8 °C 43.3 °F /  6.3 °C 30.03in /  1016.8hPa SSW 5.8mph /  9.3km/h 5.8mph /  9.3km/h 89% 0.00in /  0mm
10:21 46.6 °F /  8.1 °C 43.5 °F /  6.4 °C 30.03in /  1016.8hPa South 6.9mph /  11.1km/h 6.9mph /  11.1km/h 89% 0.00in /  0mm
10:27 46.7 °F /  8.2 °C 43.6 °F /  6.4 °C 30.03in /  1016.8hPa SSW 11.5mph /  18.5km/h 11.5mph /  18.5km/h 89% 0.00in /  0mm
10:32 46.8 °F /  8.2 °C 43.7 °F /  6.5 °C 30.03in /  1016.8hPa SSW 6.9mph /  11.1km/h 6.9mph /  11.1km/h 89% 0.00in /  0mm
10:37 46.9 °F /  8.3 °C 43.8 °F /  6.6 °C 30.03in /  1016.8hPa SSW 6.9mph /  11.1km/h 6.9mph /  11.1km/h 89% 0.00in /  0mm
10:42 47.0 °F /  8.3 °C 43.9 °F /  6.6 °C 30.03in /  1016.8hPa SSW 9.2mph /  14.8km/h 9.2mph /  14.8km/h 89% 0.00in /  0mm
10:47 47.1 °F /  8.4 °C 44.0 °F /  6.7 °C 30.03in /  1016.8hPa SSW 9.2mph /  14.8km/h 9.2mph /  14.8km/h 89% 0.00in /  0mm
10:52 47.3 °F /  8.5 °C 44.2 °F /  6.8 °C 30.03in /  1016.8hPa WSW 3.5mph /  5.6km/h 3.5mph /  5.6km/h 89% 0.00in /  0mm
10:57 47.4 °F /  8.6 °C 44.0 °F /  6.7 °C 30.02in /  1016.5hPa SSE 6.9mph /  11.1km/h 6.9mph /  11.1km/h 88% 0.00in /  0mm
11:02 47.7 °F /  8.7 °C 44.3 °F /  6.8 °C 30.02in /  1016.5hPa SSE 6.9mph /  11.1km/h 6.9mph /  11.1km/h 88% 0.00in /  0mm
11:07 47.8 °F /  8.8 °C 44.4 °F /  6.9 °C 30.02in /  1016.5hPa SSE 6.9mph /  11.1km/h 6.9mph /  11.1km/h 88% 0.00in /  0mm
11:12 47.9 °F /  8.8 °C 44.2 °F /  6.8 °C 30.01in /  1016.1hPa WSW 11.5mph /  18.5km/h 11.5mph /  18.5km/h 87% 0.00in /  0mm
11:17 48.1 °F /  8.9 °C 44.4 °F /  6.9 °C 30.01in /  1016.1hPa South 10.4mph /  16.7km/h 10.4mph /  16.7km/h 87% 0.00in /  0mm
11:22 48.2 °F /  9 °C 44.5 °F /  6.9 °C 30.01in /  1016.1hPa South 6.9mph /  11.1km/h 6.9mph /  11.1km/h 87% 0.00in /  0mm
11:28 48.4 °F /  9.1 °C 44.4 °F /  6.9 °C 30.01in /  1016.1hPa SW 6.9mph /  11.1km/h 6.9mph /  11.1km/h 86% 0.00in /  0mm
11:33 48.5 °F /  9.2 °C 44.5 °F /  6.9 °C 30.00in /  1015.8hPa South 11.0mph /  17.7km/h 11.0mph /  17.7km/h 86% 0.00in /  0mm
11:38 48.3 °F /  9.1 °C 44.3 °F /  6.8 °C 30.00in /  1015.8hPa SSW 3.5mph /  5.6km/h 3.5mph /  5.6km/h 86% 0.00in /  0mm
11:43 48.3 °F /  9.1 °C 44.3 °F /  6.8 °C 30.00in /  1015.8hPa SSW 10.0mph /  16.1km/h 10.0mph /  16.1km/h 86% 0.00in /  0mm
11:49 48.2 °F /  9 °C 44.2 °F /  6.8 °C 29.99in /  1015.5hPa SW 11.5mph /  18.5km/h 11.5mph /  18.5km/h 86% 0.00in /  0mm
11:54 48.2 °F /  9 °C 44.2 °F /  6.8 °C 29.99in /  1015.5hPa West 9.2mph /  14.8km/h 9.2mph /  14.8km/h 86% 0.00in /  0mm
11:59 48.3 °F /  9.1 °C 44.3 °F /  6.8 °C 29.99in /  1015.5hPa WSW 9.0mph /  14.5km/h 9.0mph /  14.5km/h 86% 0.00in /  0mm
12:04 48.6 °F /  9.2 °C 44.6 °F /  7 °C 29.99in /  1015.5hPa East 6.9mph /  11.1km/h 6.9mph /  11.1km/h 86% 0.00in /  0mm
12:09 48.7 °F /  9.3 °C 44.4 °F /  6.9 °C 29.99in /  1015.5hPa SSW 9.2mph /  14.8km/h 9.2mph /  14.8km/h 85% 0.00in /  0mm
12:14 48.7 °F /  9.3 °C 44.4 °F /  6.9 °C 29.99in /  1015.5hPa South 12.7mph /  20.4km/h 12.7mph /  20.4km/h 85% 0.00in /  0mm
12:19 48.7 °F /  9.3 °C 44.4 °F /  6.9 °C 29.98in /  1015.1hPa SW 17.3mph /  27.8km/h 17.3mph /  27.8km/h 85% 0.00in /  0mm
12:25 48.9 °F /  9.4 °C 44.6 °F /  7 °C 29.99in /  1015.5hPa South 9.2mph /  14.8km/h 9.2mph /  14.8km/h 85% 0.00in /  0mm
12:30 48.9 °F /  9.4 °C 44.6 °F /  7 °C 29.99in /  1015.5hPa SSW 5.8mph /  9.3km/h 5.8mph /  9.3km/h 85% 0.00in /  0mm
12:35 49.1 °F /  9.5 °C 44.8 °F /  7.1 °C 29.98in /  1015.1hPa NW 10.4mph /  16.7km/h 10.4mph /  16.7km/h 85% 0.00in /  0mm
12:40 49.2 °F /  9.6 °C 44.6 °F /  7 °C 29.97in /  1014.8hPa SSW 3.5mph /  5.6km/h 3.5mph /  5.6km/h 84% 0.00in /  0mm
12:45 49.3 °F /  9.6 °C 44.7 °F /  7.1 °C 29.97in /  1014.8hPa SW 8.1mph /  13km/h 8.1mph /  13km/h 84% 0.00in /  0mm
12:50 49.2 °F /  9.6 °C 44.6 °F /  7 °C 29.97in /  1014.8hPa SW 16.1mph /  25.9km/h 16.1mph /  25.9km/h 84% 0.00in /  0mm
12:55 49.3 °F /  9.6 °C 44.7 °F /  7.1 °C 29.96in /  1014.4hPa WSW 11.5mph /  18.5km/h 11.5mph /  18.5km/h 84% 0.00in /  0mm
13:00 49.4 °F /  9.7 °C 44.8 °F /  7.1 °C 29.96in /  1014.4hPa SW 10.4mph /  16.7km/h 10.4mph /  16.7km/h 84% 0.00in /  0mm
13:05 49.4 °F /  9.7 °C 44.5 °F /  6.9 °C 29.95in /  1014.1hPa SW 10.4mph /  16.7km/h 10.4mph /  16.7km/h 83% 0.00in /  0mm
13:11 49.4 °F /  9.7 °C 44.5 °F /  6.9 °C 29.95in /  1014.1hPa SW 6.9mph /  11.1km/h 6.9mph /  11.1km/h 83% 0.00in /  0mm
13:16 49.6 °F /  9.8 °C 44.6 °F /  7 °C 29.95in /  1014.1hPa SSE 11.5mph /  18.5km/h 11.5mph /  18.5km/h 83% 0.00in /  0mm
13:21 49.5 °F /  9.7 °C 44.6 °F /  7 °C 29.95in /  1014.1hPa SW 10.4mph /  16.7km/h 10.4mph /  16.7km/h 83% 0.00in /  0mm
13:26 49.5 °F /  9.7 °C 44.6 °F /  7 °C 29.95in /  1014.1hPa SW 10.4mph /  16.7km/h 10.4mph /  16.7km/h 83% 0.00in /  0mm
13:31 49.6 °F /  9.8 °C 44.6 °F /  7 °C 29.95in /  1014.1hPa West 6.9mph /  11.1km/h 6.9mph /  11.1km/h 83% 0.00in /  0mm
13:36 49.7 °F /  9.8 °C 44.7 °F /  7.1 °C 29.93in /  1013.4hPa SW 9.2mph /  14.8km/h 9.2mph /  14.8km/h 83% 0.00in /  0mm
13:41 49.7 °F /  9.8 °C 44.7 °F /  7.1 °C 29.93in /  1013.4hPa South 11.5mph /  18.5km/h 11.5mph /  18.5km/h 83% 0.00in /  0mm
13:46 49.7 °F /  9.8 °C 44.7 °F /  7.1 °C 29.93in /  1013.4hPa West 9.2mph /  14.8km/h 9.2mph /  14.8km/h 83% 0.00in /  0mm
13:52 49.7 °F /  9.8 °C 44.7 °F /  7.1 °C 29.93in /  1013.4hPa WSW 8.1mph /  13km/h 8.1mph /  13km/h 83% 0.00in /  0mm
13:57 49.7 °F /  9.8 °C 44.7 °F /  7.1 °C 29.93in /  1013.4hPa South 11.5mph /  18.5km/h 11.5mph /  18.5km/h 83% 0.00in /  0mm
14:02 49.7 °F /  9.8 °C 44.7 °F /  7.1 °C 29.93in /  1013.4hPa SSE 9.2mph /  14.8km/h 9.2mph /  14.8km/h 83% 0.00in /  0mm
14:07 49.7 °F /  9.8 °C 44.7 °F /  7.1 °C 29.93in /  1013.4hPa SW 5.8mph /  9.3km/h 5.8mph /  9.3km/h 83% 0.00in /  0mm
14:12 49.8 °F /  9.9 °C 44.8 °F /  7.1 °C 29.92in /  1013.1hPa South 5.8mph /  9.3km/h 5.8mph /  9.3km/h 83% 0.00in /  0mm
14:18 50.0 °F /  10 °C 45.0 °F /  7.2 °C 29.92in /  1013.1hPa WSW 3.5mph /  5.6km/h 3.5mph /  5.6km/h 83% 0.00in /  0mm
14:23 50.4 °F /  10.2 °C 45.1 °F /  7.3 °C 29.92in /  1013.1hPa SW 5.8mph /  9.3km/h 5.8mph /  9.3km/h 82% 0.00in /  0mm
14:28 50.8 °F /  10.4 °C 45.2 °F /  7.3 °C 29.91in /  1012.8hPa SSW 5.8mph /  9.3km/h 5.8mph /  9.3km/h 81% 0.00in /  0mm
14:33 51.1 °F /  10.6 °C 45.1 °F /  7.3 °C 29.91in /  1012.8hPa West 8.1mph /  13km/h 8.1mph /  13km/h 80% 0.00in /  0mm
14:38 51.4 °F /  10.8 °C 45.1 °F /  7.3 °C 29.91in /  1012.8hPa WSW 9.2mph /  14.8km/h 9.2mph /  14.8km/h 79% 0.00in /  0mm
14:43 51.7 °F /  10.9 °C 45.4 °F /  7.4 °C 29.91in /  1012.8hPa SSW 10.4mph /  16.7km/h 10.4mph /  16.7km/h 79% 0.00in /  0mm
14:48 52.3 °F /  11.3 °C 45.6 °F /  7.6 °C 29.91in /  1012.8hPa SSW 3.5mph /  5.6km/h 3.5mph /  5.6km/h 78% 0.00in /  0mm
14:53 52.7 °F /  11.5 °C 45.7 °F /  7.6 °C 29.91in /  1012.8hPa WSW 6.9mph /  11.1km/h 6.9mph /  11.1km/h 77% 0.00in /  0mm
14:58 52.7 °F /  11.5 °C 45.7 °F /  7.6 °C 29.91in /  1012.8hPa SSW 11.5mph /  18.5km/h 11.5mph /  18.5km/h 77% 0.00in /  0mm
15:04 53.2 °F /  11.8 °C 45.8 °F /  7.7 °C 29.91in /  1012.8hPa SSW 10.4mph /  16.7km/h 10.4mph /  16.7km/h 76% 0.00in /  0mm
15:09 53.5 °F /  11.9 °C 46.1 °F /  7.8 °C 29.90in /  1012.4hPa SSW 9.2mph /  14.8km/h 9.2mph /  14.8km/h 76% 0.00in /  0mm
15:14 53.6 °F /  12 °C 46.2 °F /  7.9 °C 29.90in /  1012.4hPa SW 3.5mph /  5.6km/h 3.5mph /  5.6km/h 76% 0.00in /  0mm
15:19 54.2 °F /  12.3 °C 46.4 °F /  8 °C 29.90in /  1012.4hPa SSW 10.4mph /  16.7km/h 10.4mph /  16.7km/h 75% 0.00in /  0mm
15:24 54.5 °F /  12.5 °C 46.4 °F /  8 °C 29.89in /  1012.1hPa WSW 9.2mph /  14.8km/h 9.2mph /  14.8km/h 74% 0.00in /  0mm
15:29 55.0 °F /  12.8 °C 46.5 °F /  8.1 °C 29.89in /  1012.1hPa SW 11.5mph /  18.5km/h 11.5mph /  18.5km/h 73% 0.00in /  0mm
15:35 55.1 °F /  12.8 °C 46.2 °F /  7.9 °C 29.89in /  1012.1hPa SW 8.1mph /  13km/h 8.1mph /  13km/h 72% 0.00in /  0mm
15:40 55.4 °F /  13 °C 46.5 °F /  8.1 °C 29.89in /  1012.1hPa SSW 10.4mph /  16.7km/h 10.4mph /  16.7km/h 72% 0.00in /  0mm
15:45 55.6 °F /  13.1 °C 46.3 °F /  7.9 °C 29.89in /  1012.1hPa SSE 8.1mph /  13km/h 8.1mph /  13km/h 71% 0.00in /  0mm
15:50 55.8 °F /  13.2 °C 46.5 °F /  8.1 °C 29.89in /  1012.1hPa SW 2.3mph /  3.7km/h 2.3mph /  3.7km/h 71% 0.00in /  0mm
15:55 56.5 °F /  13.6 °C 46.4 °F /  8 °C 29.89in /  1012.1hPa SW 7.0mph /  11.3km/h 7.0mph /  11.3km/h 69% 0.00in /  0mm
16:00 56.5 °F /  13.6 °C 46.4 °F /  8 °C 29.89in /  1012.1hPa SW 3.5mph /  5.6km/h 5.9mph /  9.5km/h 69% 0.00in /  0mm
16:05 56.8 °F /  13.8 °C 46.7 °F /  8.2 °C 29.88in /  1011.7hPa South 9.2mph /  14.8km/h 9.2mph /  14.8km/h 69% 0.00in /  0mm
16:10 56.8 °F /  13.8 °C 46.3 °F /  7.9 °C 29.88in /  1011.7hPa SSW 11.5mph /  18.5km/h 11.5mph /  18.5km/h 68% 0.00in /  0mm
16:15 56.8 °F /  13.8 °C 46.3 °F /  7.9 °C 29.88in /  1011.7hPa SSW 8.1mph /  13km/h 8.1mph /  13km/h 68% 0.00in /  0mm
16:20 56.9 °F /  13.8 °C 46.4 °F /  8 °C 29.88in /  1011.7hPa SSW 6.9mph /  11.1km/h 6.9mph /  11.1km/h 68% 0.00in /  0mm
16:25 57.2 °F /  14 °C 46.7 °F /  8.2 °C 29.87in /  1011.4hPa South 4.6mph /  7.4km/h 4.6mph /  7.4km/h 68% 0.00in /  0mm
16:30 57.3 °F /  14.1 °C 46.4 °F /  8 °C 29.87in /  1011.4hPa SSW 6.9mph /  11.1km/h 6.9mph /  11.1km/h 67% 0.00in /  0mm
16:35 57.3 °F /  14.1 °C 46.4 °F /  8 °C 29.87in /  1011.4hPa SW 5.8mph /  9.3km/h 5.8mph /  9.3km/h 67% 0.00in /  0mm
16:40 57.4 °F /  14.1 °C 46.5 °F /  8.1 °C 29.86in /  1011.1hPa SW 3.5mph /  5.6km/h 3.5mph /  5.6km/h 67% 0.00in /  0mm
16:46 57.4 °F /  14.1 °C 46.1 °F /  7.8 °C 29.86in /  1011.1hPa South 8.1mph /  13km/h 8.1mph /  13km/h 66% 0.00in /  0mm
16:51 57.4 °F /  14.1 °C 46.1 °F /  7.8 °C 29.86in /  1011.1hPa South 6.0mph /  9.7km/h 6.0mph /  9.7km/h 66% 0.00in /  0mm
16:56 57.3 °F /  14.1 °C 46.0 °F /  7.8 °C 29.86in /  1011.1hPa South 8.1mph /  13km/h 8.1mph /  13km/h 66% 0.00in /  0mm
17:01 57.3 °F /  14.1 °C 46.0 °F /  7.8 °C 29.85in /  1010.7hPa SSE 5.8mph /  9.3km/h 5.8mph /  9.3km/h 66% 0.00in /  0mm
17:07 57.2 °F /  14 °C 46.3 °F /  7.9 °C 29.85in /  1010.7hPa SSW 6.0mph /  9.7km/h 6.0mph /  9.7km/h 67% 0.00in /  0mm
17:12 57.0 °F /  13.9 °C 46.1 °F /  7.8 °C 29.85in /  1010.7hPa South 8.1mph /  13km/h 8.1mph /  13km/h 67% 0.00in /  0mm
17:17 56.8 °F /  13.8 °C 46.0 °F /  7.8 °C 29.85in /  1010.7hPa South 4.6mph /  7.4km/h 4.6mph /  7.4km/h 67% 0.00in /  0mm
17:23 56.6 °F /  13.7 °C 45.8 °F /  7.7 °C 29.85in /  1010.7hPa South 4.6mph /  7.4km/h 4.6mph /  7.4km/h 67% 0.00in /  0mm
17:28 56.5 °F /  13.6 °C 46.1 °F /  7.8 °C 29.85in /  1010.7hPa SSE 3.5mph /  5.6km/h 3.5mph /  5.6km/h 68% 0.00in /  0mm
17:33 56.3 °F /  13.5 °C 45.9 °F /  7.7 °C 29.85in /  1010.7hPa SSE 5.8mph /  9.3km/h 5.8mph /  9.3km/h 68% 0.00in /  0mm
17:38 56.2 °F /  13.4 °C 45.8 °F /  7.7 °C 29.85in /  1010.7hPa South 3.5mph /  5.6km/h 3.5mph /  5.6km/h 68% 0.00in /  0mm
17:43 56.0 °F /  13.3 °C 45.6 °F /  7.6 °C 29.85in /  1010.7hPa South 4.6mph /  7.4km/h 4.6mph /  7.4km/h 68% 0.00in /  0mm
17:48 55.8 °F /  13.2 °C 45.8 °F /  7.7 °C 29.85in /  1010.7hPa South 3.5mph /  5.6km/h 3.5mph /  5.6km/h 69% 0.00in /  0mm
17:53 55.7 °F /  13.2 °C 45.7 °F /  7.6 °C 29.86in /  1011.1hPa South 3.5mph /  5.6km/h 3.5mph /  5.6km/h 69% 0.00in /  0mm
17:58 55.5 °F /  13.1 °C 45.5 °F /  7.5 °C 29.86in /  1011.1hPa South 4.6mph /  7.4km/h 4.6mph /  7.4km/h 69% 0.00in /  0mm
18:04 55.2 °F /  12.9 °C 45.6 °F /  7.6 °C 29.85in /  1010.7hPa South 5.0mph /  8km/h 5.0mph /  8km/h 70% 0.00in /  0mm
18:09 55.0 °F /  12.8 °C 45.4 °F /  7.4 °C 29.85in /  1010.7hPa SSE 3.5mph /  5.6km/h 3.5mph /  5.6km/h 70% 0.00in /  0mm
18:10 55.0 °F /  12.8 °C 45.4 °F /  7.4 °C 29.85in /  1010.7hPa SSE 3.5mph /  5.6km/h 3.5mph /  5.6km/h 70% 0.00in /  0mm
18:15 54.7 °F /  12.6 °C 45.1 °F /  7.3 °C 29.85in /  1010.7hPa SSE 4.0mph /  6.4km/h 4.0mph /  6.4km/h 70% 0.00in /  0mm
18:20 54.5 °F /  12.5 °C 45.3 °F /  7.4 °C 29.86in /  1011.1hPa South 3.5mph /  5.6km/h 3.5mph /  5.6km/h 71% 0.00in /  0mm
18:26 54.3 °F /  12.4 °C 45.1 °F /  7.3 °C 29.86in /  1011.1hPa South 2.3mph /  3.7km/h 2.3mph /  3.7km/h 71% 0.00in /  0mm
18:31 54.0 °F /  12.2 °C 45.2 °F /  7.3 °C 29.86in /  1011.1hPa South 3.5mph /  5.6km/h 3.5mph /  5.6km/h 72% 0.00in /  0mm
18:36 53.9 °F /  12.2 °C 45.1 °F /  7.3 °C 29.86in /  1011.1hPa SE 6.9mph /  11.1km/h 6.9mph /  11.1km/h 72% 0.00in /  0mm
18:41 53.9 °F /  12.2 °C 45.1 °F /  7.3 °C 29.86in /  1011.1hPa South 5.0mph /  8km/h 5.0mph /  8km/h 72% 0.00in /  0mm
18:46 53.8 °F /  12.1 °C 45.0 °F /  7.2 °C 29.86in /  1011.1hPa South 7.0mph /  11.3km/h 7.0mph /  11.3km/h 72% 0.00in /  0mm
18:52 53.7 °F /  12.1 °C 44.9 °F /  7.2 °C 29.86in /  1011.1hPa South 5.8mph /  9.3km/h 5.8mph /  9.3km/h 72% 0.00in /  0mm
18:57 53.6 °F /  12 °C 44.8 °F /  7.1 °C 29.85in /  1010.7hPa South 5.8mph /  9.3km/h 5.8mph /  9.3km/h 72% 0.00in /  0mm
19:02 53.3 °F /  11.8 °C 44.9 °F /  7.2 °C 29.84in /  1010.4hPa South 3.5mph /  5.6km/h 3.5mph /  5.6km/h 73% 0.00in /  0mm
19:07 53.0 °F /  11.7 °C 44.6 °F /  7 °C 29.84in /  1010.4hPa South 4.6mph /  7.4km/h 4.6mph /  7.4km/h 73% 0.00in /  0mm
19:12 52.7 °F /  11.5 °C 44.6 °F /  7 °C 29.84in /  1010.4hPa South 4.0mph /  6.4km/h 4.0mph /  6.4km/h 74% 0.00in /  0mm
19:18 52.5 °F /  11.4 °C 44.4 °F /  6.9 °C 29.84in /  1010.4hPa SSE 5.8mph /  9.3km/h 5.8mph /  9.3km/h 74% 0.00in /  0mm
19:23 52.2 °F /  11.2 °C 44.5 °F /  6.9 °C 29.84in /  1010.4hPa SSE 3.5mph /  5.6km/h 3.5mph /  5.6km/h 75% 0.00in /  0mm
19:28 52.0 °F /  11.1 °C 44.3 °F /  6.8 °C 29.84in /  1010.4hPa SSE 4.0mph /  6.4km/h 4.0mph /  6.4km/h 75% 0.00in /  0mm
19:33 51.8 °F /  11 °C 44.5 °F /  6.9 °C 29.84in /  1010.4hPa SE 4.6mph /  7.4km/h 4.6mph /  7.4km/h 76% 0.00in /  0mm
19:39 51.7 °F /  10.9 °C 44.4 °F /  6.9 °C 29.84in /  1010.4hPa South 5.8mph /  9.3km/h 5.8mph /  9.3km/h 76% 0.00in /  0mm
19:44 51.6 °F /  10.9 °C 44.3 °F /  6.8 °C 29.84in /  1010.4hPa South 3.5mph /  5.6km/h 3.5mph /  5.6km/h 76% 0.00in /  0mm
19:50 51.4 °F /  10.8 °C 44.4 °F /  6.9 °C 29.83in /  1010hPa SSW 4.6mph /  7.4km/h 4.6mph /  7.4km/h 77% 0.00in /  0mm
19:55 51.2 °F /  10.7 °C 44.2 °F /  6.8 °C 29.83in /  1010hPa South 5.8mph /  9.3km/h 5.8mph /  9.3km/h 77% 0.00in /  0mm
20:00 51.2 °F /  10.7 °C 44.2 °F /  6.8 °C 29.83in /  1010hPa South 5.8mph /  9.3km/h 5.8mph /  9.3km/h 77% 0.00in /  0mm
20:05 51.1 °F /  10.6 °C 44.5 °F /  6.9 °C 29.83in /  1010hPa South 3.5mph /  5.6km/h 4.1mph /  6.6km/h 78% 0.00in /  0mm
20:10 51.0 °F /  10.6 °C 44.4 °F /  6.9 °C 29.83in /  1010hPa South 5.8mph /  9.3km/h 6.1mph /  9.8km/h 78% 0.00in /  0mm
20:16 51.0 °F /  10.6 °C 44.4 °F /  6.9 °C 29.83in /  1010hPa SSE 6.9mph /  11.1km/h 6.9mph /  11.1km/h 78% 0.00in /  0mm
20:21 51.0 °F /  10.6 °C 44.4 °F /  6.9 °C 29.83in /  1010hPa SSW 7.0mph /  11.3km/h 7.0mph /  11.3km/h 78% 0.00in /  0mm
20:26 51.0 °F /  10.6 °C 44.4 °F /  6.9 °C 29.83in /  1010hPa South 8.0mph /  12.9km/h 8.0mph /  12.9km/h 78% 0.00in /  0mm
20:32 51.1 °F /  10.6 °C 44.5 °F /  6.9 °C 29.83in /  1010hPa SSE 6.9mph /  11.1km/h 6.9mph /  11.1km/h 78% 0.00in /  0mm
20:37 51.1 °F /  10.6 °C 44.8 °F /  7.1 °C 29.82in /  1009.7hPa South 5.8mph /  9.3km/h 5.8mph /  9.3km/h 79% 0.00in /  0mm
20:42 51.1 °F /  10.6 °C 44.8 °F /  7.1 °C 29.82in /  1009.7hPa South 3.5mph /  5.6km/h 4.9mph /  7.9km/h 79% 0.00in /  0mm
20:47 51.2 °F /  10.7 °C 44.6 °F /  7 °C 29.82in /  1009.7hPa SSE 10.4mph /  16.7km/h 10.4mph /  16.7km/h 78% 0.00in /  0mm
20:52 51.2 °F /  10.7 °C 44.9 °F /  7.2 °C 29.82in /  1009.7hPa SSW 9.2mph /  14.8km/h 9.2mph /  14.8km/h 79% 0.00in /  0mm
20:57 51.3 °F /  10.7 °C 45.0 °F /  7.2 °C 29.82in /  1009.7hPa SE 9.2mph /  14.8km/h 9.2mph /  14.8km/h 79% 0.00in /  0mm
21:03 51.4 °F /  10.8 °C 45.1 °F /  7.3 °C 29.82in /  1009.7hPa South 6.9mph /  11.1km/h 6.9mph /  11.1km/h 79% 0.00in /  0mm
21:08 51.3 °F /  10.7 °C 45.0 °F /  7.2 °C 29.82in /  1009.7hPa South 9.2mph /  14.8km/h 9.2mph /  14.8km/h 79% 0.00in /  0mm
21:13 51.3 °F /  10.7 °C 45.0 °F /  7.2 °C 29.82in /  1009.7hPa SSE 6.9mph /  11.1km/h 6.9mph /  11.1km/h 79% 0.00in /  0mm
21:18 51.3 °F /  10.7 °C 45.0 °F /  7.2 °C 29.82in /  1009.7hPa South 8.1mph /  13km/h 8.1mph /  13km/h 79% 0.00in /  0mm
21:23 51.4 °F /  10.8 °C 45.1 °F /  7.3 °C 29.81in /  1009.4hPa South 7.0mph /  11.3km/h 7.0mph /  11.3km/h 79% 0.00in /  0mm
21:28 51.4 °F /  10.8 °C 45.4 °F /  7.4 °C 29.81in /  1009.4hPa SSE 6.9mph /  11.1km/h 6.9mph /  11.1km/h 80% 0.00in /  0mm
21:34 51.5 °F /  10.8 °C 45.5 °F /  7.5 °C 29.81in /  1009.4hPa South 9.2mph /  14.8km/h 9.2mph /  14.8km/h 80% 0.00in /  0mm
21:39 51.6 °F /  10.9 °C 45.6 °F /  7.6 °C 29.81in /  1009.4hPa SE 9.2mph /  14.8km/h 9.2mph /  14.8km/h 80% 0.00in /  0mm
21:44 51.8 °F /  11 °C 46.2 °F /  7.9 °C 29.81in /  1009.4hPa South 9.2mph /  14.8km/h 9.2mph /  14.8km/h 81% 0.00in /  0mm
21:49 52.2 °F /  11.2 °C 46.5 °F /  8.1 °C 29.81in /  1009.4hPa South 11.5mph /  18.5km/h 11.5mph /  18.5km/h 81% 0.00in /  0mm
21:54 52.6 °F /  11.4 °C 46.6 °F /  8.1 °C 29.81in /  1009.4hPa SSE 6.9mph /  11.1km/h 6.9mph /  11.1km/h 80% 0.00in /  0mm
21:59 52.8 °F /  11.6 °C 47.1 °F /  8.4 °C 29.81in /  1009.4hPa South 11.5mph /  18.5km/h 11.5mph /  18.5km/h 81% 0.00in /  0mm
22:04 53.4 °F /  11.9 °C 47.4 °F /  8.6 °C 29.81in /  1009.4hPa SSW 10.4mph /  16.7km/h 10.4mph /  16.7km/h 80% 0.00in /  0mm
22:10 54.0 °F /  12.2 °C 47.6 °F /  8.7 °C 29.82in /  1009.7hPa SW 9.2mph /  14.8km/h 9.2mph /  14.8km/h 79% 0.00in /  0mm
22:15 54.3 °F /  12.4 °C 47.6 °F /  8.7 °C 29.81in /  1009.4hPa South 8.1mph /  13km/h 8.1mph /  13km/h 78% 0.00in /  0mm
22:20 54.4 °F /  12.4 °C 47.7 °F /  8.7 °C 29.81in /  1009.4hPa SSW 5.0mph /  8km/h 5.0mph /  8km/h 78% 0.00in /  0mm
22:25 54.6 °F /  12.6 °C 47.9 °F /  8.8 °C 29.81in /  1009.4hPa SSW 4.6mph /  7.4km/h 4.6mph /  7.4km/h 78% 0.00in /  0mm
22:30 54.8 °F /  12.7 °C 48.1 °F /  8.9 °C 29.80in /  1009hPa SSW 9.2mph /  14.8km/h 9.2mph /  14.8km/h 78% 0.00in /  0mm
22:35 55.1 °F /  12.8 °C 48.0 °F /  8.9 °C 29.81in /  1009.4hPa SSE 9.2mph /  14.8km/h 9.2mph /  14.8km/h 77% 0.00in /  0mm
22:41 55.2 °F /  12.9 °C 48.1 °F /  8.9 °C 29.80in /  1009hPa South 16.0mph /  25.7km/h 16.0mph /  25.7km/h 77% 0.00in /  0mm
22:46 55.6 °F /  13.1 °C 48.2 °F /  9 °C 29.80in /  1009hPa SSW 9.2mph /  14.8km/h 9.2mph /  14.8km/h 76% 0.00in /  0mm
22:51 55.7 °F /  13.2 °C 48.2 °F /  9 °C 29.80in /  1009hPa SSE 9.2mph /  14.8km/h 9.2mph /  14.8km/h 76% 0.00in /  0mm
22:56 55.7 °F /  13.2 °C 48.6 °F /  9.2 °C 29.79in /  1008.7hPa South 11.5mph /  18.5km/h 11.5mph /  18.5km/h 77% 0.00in /  0mm
23:01 55.8 °F /  13.2 °C 48.7 °F /  9.3 °C 29.78in /  1008.4hPa South 10.4mph /  16.7km/h 10.4mph /  16.7km/h 77% 0.00in /  0mm
23:06 55.9 °F /  13.3 °C 48.8 °F /  9.3 °C 29.78in /  1008.4hPa SSE 11.5mph /  18.5km/h 11.5mph /  18.5km/h 77% 0.00in /  0mm
23:11 56.1 °F /  13.4 °C 49.0 °F /  9.4 °C 29.78in /  1008.4hPa SSW 15.0mph /  24.1km/h 15.0mph /  24.1km/h 77% 0.00in /  0mm
23:16 56.2 °F /  13.4 °C 48.7 °F /  9.3 °C 29.78in /  1008.4hPa SSW 6.9mph /  11.1km/h 6.9mph /  11.1km/h 76% 0.00in /  0mm
23:21 56.8 °F /  13.8 °C 49.3 °F /  9.6 °C 29.77in /  1008hPa SSE 12.7mph /  20.4km/h 12.7mph /  20.4km/h 76% 0.00in /  0mm
23:27 57.0 °F /  13.9 °C 49.2 °F /  9.6 °C 29.77in /  1008hPa South 11.0mph /  17.7km/h 11.0mph /  17.7km/h 75% 0.00in /  0mm
23:32 57.2 °F /  14 °C 49.3 °F /  9.6 °C 29.77in /  1008hPa SSE 8.1mph /  13km/h 8.1mph /  13km/h 75% 0.00in /  0mm
23:37 57.4 °F /  14.1 °C 49.5 °F /  9.7 °C 29.76in /  1007.7hPa SW 9.2mph /  14.8km/h 9.2mph /  14.8km/h 75% 0.00in /  0mm
23:42 57.7 °F /  14.3 °C 49.5 °F /  9.7 °C 29.76in /  1007.7hPa South 13.8mph /  22.2km/h 13.8mph /  22.2km/h 74% 0.00in /  0mm
23:47 57.5 °F /  14.2 °C 49.6 °F /  9.8 °C 29.76in /  1007.7hPa SW 6.9mph /  11.1km/h 6.9mph /  11.1km/h 75% 0.00in /  0mm
23:52 57.3 °F /  14.1 °C 49.4 °F /  9.7 °C 29.76in /  1007.7hPa South 5.8mph /  9.3km/h 5.8mph /  9.3km/h 75% 0.00in /  0mm
23:58 57.2 °F /  14 °C 49.3 °F /  9.6 °C 29.77in /  1008hPa SSW 5.0mph /  8km/h 5.0mph /  8km/h 75% 0.00in /  0mm
Live Lenexa Weather
Compliments of Weather Underground - 1.75 mb